createdAt,value
2023-04-12T00:01:36.376Z,99612.39
2023-04-12T00:04:10.507Z,99602.77
2023-04-12T00:06:48.970Z,99598.12
2023-04-12T00:09:22.530Z,99593.73
2023-04-12T00:11:57.414Z,99590.11
2023-04-12T00:14:31.453Z,99594.17
2023-04-12T00:17:05.390Z,99598.17
2023-04-12T00:19:41.936Z,99602.58
2023-04-12T00:22:17.032Z,99609.09
2023-04-12T00:24:50.500Z,99608.54
2023-04-12T00:27:24.280Z,99609.95
2023-04-12T00:29:58.086Z,99606.95
2023-04-12T00:32:32.579Z,99608.93
2023-04-12T00:35:06.409Z,99606.80
2023-04-12T00:37:39.757Z,99607.01
2023-04-12T00:40:16.480Z,99604.59
2023-04-12T00:42:49.930Z,99596.25
2023-04-12T00:45:23.882Z,99591.60
2023-04-12T00:47:58.175Z,99587.17
2023-04-12T00:50:32.160Z,99584.43
2023-04-12T00:53:06.098Z,99582.79
2023-04-12T00:55:40.001Z,99577.89
2023-04-12T00:58:14.345Z,99581.17
2023-04-12T01:00:53.333Z,99580.86
2023-04-12T01:03:28.202Z,99577.95
2023-04-12T01:06:14.258Z,99570.60
2023-04-12T01:08:59.958Z,99571.89
2023-04-12T01:11:40.332Z,99576.19
2023-04-12T01:14:32.337Z,99579.20
2023-04-12T01:17:10.137Z,99579.45
2023-04-12T01:20:00.019Z,99585.58
2023-04-12T01:23:07.609Z,99591.16
2023-04-12T01:25:52.996Z,99584.21
2023-04-12T01:28:34.375Z,99590.64
2023-04-12T01:31:09.091Z,99596.81
2023-04-12T01:33:45.043Z,99598.09
2023-04-12T01:36:23.083Z,99599.96
2023-04-12T01:38:58.009Z,99600.02
2023-04-12T01:41:32.329Z,99607.17
2023-04-12T01:44:05.848Z,99605.33
2023-04-12T01:46:39.162Z,99601.24
2023-04-12T01:49:13.121Z,99596.89
2023-04-12T01:51:56.895Z,99595.81
2023-04-12T01:54:32.804Z,99592.98
2023-04-12T01:57:08.857Z,99592.33
2023-04-12T01:59:45.084Z,99592.66
2023-04-12T02:02:19.355Z,99587.22
2023-04-12T02:04:53.973Z,99588.23
2023-04-12T02:07:27.840Z,99591.95
2023-04-12T02:10:01.413Z,99594.98
2023-04-12T02:12:35.134Z,99589.30
2023-04-12T02:15:10.847Z,99587.34
2023-04-12T02:17:46.897Z,99585.05
2023-04-12T02:20:21.630Z,99582.73
2023-04-12T02:22:55.516Z,99576.85
2023-04-12T02:25:29.145Z,99574.83
2023-04-12T02:28:02.464Z,99577.16
2023-04-12T02:30:36.124Z,99575.35
2023-04-12T02:33:10.119Z,99576.20
2023-04-12T02:35:43.809Z,99578.19
2023-04-12T02:38:19.503Z,99576.71
2023-04-12T02:40:53.390Z,99574.18
2023-04-12T02:43:27.420Z,99578.66
2023-04-12T02:46:07.123Z,99581.70
2023-04-12T02:48:47.598Z,99585.64
2023-04-12T02:51:21.510Z,99592.27
2023-04-12T02:53:56.980Z,99594.23
2023-04-12T02:56:32.998Z,99595.81
2023-04-12T02:59:12.188Z,99596.41
2023-04-12T03:02:04.788Z,99597.08
2023-04-12T03:04:40.334Z,99593.75
2023-04-12T03:07:18.352Z,99592.52
2023-04-12T03:09:56.103Z,99594.70
2023-04-12T03:12:30.580Z,99593.38
2023-04-12T03:15:25.178Z,99593.66
2023-04-12T03:17:59.653Z,99598.17
2023-04-12T03:20:36.524Z,99600.02
2023-04-12T03:23:15.766Z,99602.38
2023-04-12T03:25:52.252Z,99601.41
2023-04-12T03:28:46.275Z,99605.83
2023-04-12T03:31:21.323Z,99605.89
2023-04-12T03:33:55.902Z,99605.67
2023-04-12T03:36:31.628Z,99604.85
2023-04-12T03:39:11.632Z,99602.71
2023-04-12T03:41:45.818Z,99603.66
2023-04-12T03:44:19.497Z,99601.21
2023-04-12T03:46:53.613Z,99601.73
2023-04-12T03:49:27.621Z,99603.36
2023-04-12T03:52:01.371Z,99607.41
2023-04-12T03:54:35.131Z,99608.33
2023-04-12T03:57:12.619Z,99607.30
2023-04-12T03:59:52.406Z,99604.13
2023-04-12T04:02:30.691Z,99602.94
2023-04-12T04:05:05.377Z,99606.02
2023-04-12T04:07:39.115Z,99605.44
2023-04-12T04:10:13.906Z,99606.98
2023-04-12T04:12:47.728Z,99602.54
2023-04-12T04:15:21.792Z,99604.98
2023-04-12T04:17:55.918Z,99605.10
2023-04-12T04:20:29.722Z,99605.31
2023-04-12T04:23:03.296Z,99605.42
2023-04-12T04:25:40.072Z,99609.73
2023-04-12T04:28:16.320Z,99612.23
2023-04-12T04:30:52.012Z,99615.73
2023-04-12T04:33:26.315Z,99622.38
2023-04-12T04:36:01.954Z,99618.58
2023-04-12T04:38:38.047Z,99622.13
2023-04-12T04:41:15.762Z,99622.02
2023-04-12T04:44:05.014Z,99621.92
2023-04-12T04:46:39.921Z,99625.34
2023-04-12T04:49:13.792Z,99628.93
2023-04-12T04:51:47.621Z,99633.67
2023-04-12T04:54:21.166Z,99637.66
2023-04-12T04:56:54.905Z,99639.08
2023-04-12T04:59:28.668Z,99641.72
2023-04-12T05:02:11.850Z,99642.77
2023-04-12T05:04:45.861Z,99639.34
2023-04-12T05:07:21.251Z,99637.68
2023-04-12T05:09:55.309Z,99636.40
2023-04-12T05:12:29.074Z,99642.50
2023-04-12T05:17:40.292Z,99653.21
2023-04-12T05:20:14.504Z,99652.16
2023-04-12T05:22:49.471Z,99650.70
2023-04-12T05:25:23.126Z,99651.48
2023-04-12T05:28:14.526Z,99653.83
2023-04-12T05:30:49.180Z,99649.55
2023-04-12T05:33:26.730Z,99649.63
2023-04-12T05:36:00.938Z,99645.98
2023-04-12T05:38:35.441Z,99646.65
2023-04-12T05:41:11.916Z,99648.52
2023-04-12T05:43:45.833Z,99649.35
2023-04-12T05:46:19.801Z,99645.14
2023-04-12T05:48:56.524Z,99644.88
2023-04-12T05:51:40.470Z,99645.65
2023-04-12T05:54:21.483Z,99648.27
2023-04-12T05:56:56.613Z,99650.94
2023-04-12T05:59:31.190Z,99651.42
2023-04-12T06:02:05.201Z,99650.23
2023-04-12T06:04:50.268Z,99657.09
2023-04-12T06:07:26.243Z,99652.35
2023-04-12T06:09:59.893Z,99653.73
2023-04-12T06:12:34.255Z,99653.37
2023-04-12T06:15:09.272Z,99646.52
2023-04-12T06:17:43.396Z,99647.19
2023-04-12T06:20:17.518Z,99647.56
2023-04-12T06:22:51.361Z,99646.33
2023-04-12T06:25:25.411Z,99650.40
2023-04-12T06:28:00.265Z,99650.69
2023-04-12T06:30:34.109Z,99650.26
2023-04-12T06:33:07.931Z,99647.96
2023-04-12T06:35:42.274Z,99650.69
2023-04-12T06:38:16.126Z,99648.26
2023-04-12T06:40:50.616Z,99650.92
2023-04-12T06:43:24.259Z,99655.21
2023-04-12T06:45:59.045Z,99658.60
2023-04-12T06:48:33.253Z,99658.48
2023-04-12T06:51:06.988Z,99659.25
2023-04-12T06:53:41.526Z,99660.77
2023-04-12T06:56:17.870Z,99660.34
2023-04-12T06:58:52.449Z,99660.56
2023-04-12T07:01:26.229Z,99662.40
2023-04-12T07:03:59.929Z,99657.27
2023-04-12T07:06:33.921Z,99658.20
2023-04-12T07:09:07.738Z,99660.02
2023-04-12T07:11:41.591Z,99662.14
2023-04-12T07:14:15.601Z,99664.38
2023-04-12T07:16:49.312Z,99668.95
2023-04-12T07:19:23.296Z,99673.17
2023-04-12T07:21:56.953Z,99674.52
2023-04-12T07:24:30.962Z,99677.81
2023-04-12T07:27:05.358Z,99682.28
2023-04-12T07:29:39.284Z,99680.32
2023-04-12T07:32:13.204Z,99676.73
2023-04-12T07:34:46.793Z,99667.23
2023-04-12T07:37:20.708Z,99665.98
2023-04-12T07:39:54.821Z,99660.81
2023-04-12T07:42:28.575Z,99667.89
2023-04-12T07:45:02.294Z,99673.17
2023-04-12T07:47:36.358Z,99673.45
2023-04-12T07:50:13.077Z,99670.84
2023-04-12T07:52:47.441Z,99670.95
2023-04-12T07:55:21.286Z,99672.25
2023-04-12T07:57:54.594Z,99674.38
2023-04-12T08:00:28.880Z,99679.19
2023-04-12T08:03:02.688Z,99678.36
2023-04-12T08:05:36.461Z,99678.20
2023-04-12T08:08:11.549Z,99679.45
2023-04-12T08:10:45.692Z,99677.70
2023-04-12T08:13:19.441Z,99677.11
2023-04-12T08:15:53.960Z,99678.04
2023-04-12T08:18:28.836Z,99672.80
2023-04-12T08:21:03.013Z,99681.86
2023-04-12T08:23:36.916Z,99687.20
2023-04-12T08:26:11.002Z,99689.82
2023-04-12T08:28:44.862Z,99694.35
2023-04-12T08:31:18.741Z,99688.50
2023-04-12T08:33:52.836Z,99696.52
2023-04-12T08:36:26.279Z,99703.49
2023-04-12T08:39:03.322Z,99705.51
2023-04-12T08:41:39.156Z,99707.13
2023-04-12T08:44:15.220Z,99708.55
2023-04-12T08:46:50.664Z,99702.39
2023-04-12T08:49:25.401Z,99699.34
2023-04-12T08:52:01.917Z,99699.46
2023-04-12T08:54:35.978Z,99688.89
2023-04-12T08:57:11.235Z,99676.89
2023-04-12T08:59:47.060Z,99666.32
2023-04-12T09:02:20.888Z,99656.64
2023-04-12T09:04:55.774Z,99648.95
2023-04-12T09:07:30.957Z,99643.08
2023-04-12T09:10:05.960Z,99641.63
2023-04-12T09:12:50.290Z,99640.02
2023-04-12T09:15:25.679Z,99645.30
2023-04-12T09:18:10.763Z,99653.99
2023-04-12T09:20:44.573Z,99649.61
2023-04-12T09:23:25.792Z,99649.53
2023-04-12T09:25:59.851Z,99644.46
2023-04-12T09:28:34.174Z,99640.70
2023-04-12T09:31:17.675Z,99639.91
2023-04-12T09:33:51.377Z,99640.98
2023-04-12T09:36:24.838Z,99638.94
2023-04-12T09:39:05.718Z,99637.20
2023-04-12T09:41:39.527Z,99641.05
2023-04-12T09:44:29.296Z,99639.33
2023-04-12T09:47:04.619Z,99644.68
2023-04-12T09:49:42.582Z,99641.05
2023-04-12T09:52:17.063Z,99633.84
2023-04-12T09:54:52.103Z,99633.22
2023-04-12T09:57:27.377Z,99630.07
2023-04-12T10:00:09.126Z,99630.27
2023-04-12T10:02:47.132Z,99632.39
2023-04-12T10:05:23.663Z,99629.31
2023-04-12T10:07:58.776Z,99632.23
2023-04-12T10:10:36.327Z,99634.42
2023-04-12T10:13:11.712Z,99632.95
2023-04-12T10:15:47.284Z,99634.12
2023-04-12T10:18:21.411Z,99640.40
2023-04-12T10:20:55.351Z,99642.16
2023-04-12T10:23:29.502Z,99641.43
2023-04-12T10:26:06.708Z,99642.09
2023-04-12T10:28:42.327Z,99640.55
2023-04-12T10:31:33.280Z,99642.42
2023-04-12T10:34:07.333Z,99644.33
2023-04-12T10:36:57.816Z,99645.73
2023-04-12T10:39:45.436Z,99640.63
2023-04-12T10:42:27.509Z,99639.92
2023-04-12T10:45:38.352Z,99637.48
2023-04-12T10:48:30.815Z,99632.86
2023-04-12T10:51:23.767Z,99626.73
2023-04-12T10:54:18.488Z,99625.84
2023-04-12T10:56:52.589Z,99622.48
2023-04-12T10:59:59.694Z,99621.74
2023-04-12T11:02:34.962Z,99619.71
2023-04-12T11:05:14.850Z,99615.41
2023-04-12T11:08:20.344Z,99612.40
2023-04-12T11:11:06.186Z,99606.67
2023-04-12T11:13:44.277Z,99602.20
2023-04-12T11:16:18.263Z,99599.20
2023-04-12T11:18:52.692Z,99594.33
2023-04-12T11:21:27.729Z,99593.32
2023-04-12T11:24:02.229Z,99595.57
2023-04-12T11:26:37.284Z,99597.62
2023-04-12T11:29:17.099Z,99595.95
2023-04-12T11:31:50.990Z,99594.04
2023-04-12T11:34:25.745Z,99595.16
2023-04-12T11:37:00.015Z,99591.83
2023-04-12T11:39:33.861Z,99588.00
2023-04-12T11:42:09.052Z,99582.66
2023-04-12T11:44:55.978Z,99576.46
2023-04-12T11:47:32.109Z,99570.55
2023-04-12T11:50:06.355Z,99565.65
2023-04-12T11:52:41.580Z,99559.95
2023-04-12T11:55:15.362Z,99559.46
2023-04-12T11:57:56.325Z,99555.36
2023-04-12T12:00:31.547Z,99554.77
2023-04-12T12:03:08.519Z,99553.89
2023-04-12T12:05:45.387Z,99560.14
2023-04-12T12:08:20.341Z,99559.88
2023-04-12T12:11:07.148Z,99555.98
2023-04-12T12:13:54.038Z,99550.64
2023-04-12T12:16:31.667Z,99547.54
2023-04-12T12:19:07.549Z,99543.80
2023-04-12T12:21:41.457Z,99539.52
2023-04-12T12:24:17.193Z,99534.40
2023-04-12T12:26:52.810Z,99533.03
2023-04-12T12:29:27.722Z,99527.89
2023-04-12T12:32:06.823Z,99523.86
2023-04-12T12:34:40.349Z,99510.34
2023-04-12T12:37:17.580Z,99503.49
2023-04-12T12:40:11.748Z,99502.86
2023-04-12T12:42:55.128Z,99502.04
2023-04-12T12:45:30.781Z,99499.20
2023-04-12T12:48:05.438Z,99492.77
2023-04-12T12:50:39.503Z,99494.02
2023-04-12T12:53:13.670Z,99495.20
2023-04-12T12:55:47.268Z,99490.77
2023-04-12T12:58:21.103Z,99491.42
2023-04-12T13:00:55.112Z,99485.72
2023-04-12T13:03:28.988Z,99482.86
2023-04-12T13:06:03.083Z,99483.15
2023-04-12T13:08:37.485Z,99479.99
2023-04-12T13:11:11.792Z,99482.63
2023-04-12T13:13:45.488Z,99482.43
2023-04-12T13:16:19.280Z,99481.30
2023-04-12T13:18:53.258Z,99479.83
2023-04-12T13:21:27.574Z,99479.04
2023-04-12T13:24:01.501Z,99475.90
2023-04-12T13:26:35.810Z,99471.39
2023-04-12T13:29:09.628Z,99469.36
2023-04-12T13:31:43.164Z,99461.55
2023-04-12T13:34:16.967Z,99463.35
2023-04-12T13:36:51.149Z,99460.42
2023-04-12T13:39:25.709Z,99454.55
2023-04-12T13:41:59.909Z,99452.27
2023-04-12T13:44:33.812Z,99449.23
2023-04-12T13:47:07.275Z,99451.70
2023-04-12T13:49:40.917Z,99452.65
2023-04-12T13:52:15.004Z,99452.71
2023-04-12T13:54:49.001Z,99453.35
2023-04-12T13:57:22.738Z,99453.08
2023-04-12T13:59:56.441Z,99455.09
2023-04-12T14:02:31.589Z,99454.30
2023-04-12T14:05:05.728Z,99450.66
2023-04-12T14:07:39.786Z,99449.77
2023-04-12T14:10:14.580Z,99449.42
2023-04-12T14:12:47.957Z,99449.23
2023-04-12T14:15:22.229Z,99449.27
2023-04-12T14:17:56.101Z,99448.73
2023-04-12T14:20:29.811Z,99448.95
2023-04-12T14:23:04.403Z,99447.86
2023-04-12T14:25:41.124Z,99443.35
2023-04-12T14:28:17.641Z,99445.50
2023-04-12T14:30:53.066Z,99450.44
2023-04-12T14:33:26.897Z,99452.91
2023-04-12T14:36:05.338Z,99454.20
2023-04-12T14:38:38.639Z,99456.96
2023-04-12T14:41:13.370Z,99454.54
2023-04-12T14:43:47.500Z,99454.75
2023-04-12T14:46:22.544Z,99449.47
2023-04-12T14:48:57.965Z,99451.39
2023-04-12T14:51:34.451Z,99449.73
2023-04-12T14:54:08.258Z,99449.84
2023-04-12T14:56:49.892Z,99450.61
2023-04-12T14:59:27.609Z,99453.29
2023-04-12T15:02:01.314Z,99455.77
2023-04-12T15:04:36.370Z,99455.59
2023-04-12T15:07:10.586Z,99455.20
2023-04-12T15:09:45.041Z,99456.32
2023-04-12T15:12:19.059Z,99461.46
2023-04-12T15:14:54.275Z,99461.88
2023-04-12T15:17:31.244Z,99455.96
2023-04-12T15:20:09.818Z,99451.98
2023-04-12T15:22:43.566Z,99451.63
2023-04-12T15:25:17.446Z,99447.92
2023-04-12T15:27:51.754Z,99446.33
2023-04-12T15:30:25.679Z,99445.32
2023-04-12T15:32:59.975Z,99440.98
2023-04-12T15:35:33.661Z,99440.75
2023-04-12T15:38:08.485Z,99440.23
2023-04-12T15:40:42.250Z,99441.36
2023-04-12T15:43:16.109Z,99439.04
2023-04-12T15:45:53.632Z,99437.81
2023-04-12T15:48:27.956Z,99437.77
2023-04-12T15:51:01.700Z,99434.38
2023-04-12T15:53:35.836Z,99433.25
2023-04-12T15:56:12.978Z,99431.71
2023-04-12T15:58:46.517Z,99430.89
2023-04-12T16:01:20.568Z,99431.02
2023-04-12T16:03:55.761Z,99430.64
2023-04-12T16:06:31.592Z,99429.71
2023-04-12T16:09:05.960Z,99429.35
2023-04-12T16:11:41.141Z,99429.33
2023-04-12T16:14:15.032Z,99427.30
2023-04-12T16:16:49.511Z,99431.21
2023-04-12T16:19:23.759Z,99427.02
2023-04-12T16:21:58.152Z,99425.67
2023-04-12T16:24:32.032Z,99426.67
2023-04-12T16:27:06.099Z,99426.56
2023-04-12T16:29:40.771Z,99427.25
2023-04-12T16:32:14.928Z,99430.67
2023-04-12T16:34:49.215Z,99432.19
2023-04-12T16:37:29.612Z,99433.52
2023-04-12T16:40:07.293Z,99434.63
2023-04-12T16:42:41.989Z,99436.86
2023-04-12T16:45:16.946Z,99438.31
2023-04-12T16:47:52.551Z,99435.38
2023-04-12T16:50:30.414Z,99433.17
2023-04-12T16:53:04.635Z,99435.46
2023-04-12T16:55:42.329Z,99435.70
2023-04-12T16:58:17.695Z,99439.41
2023-04-12T17:00:54.434Z,99440.26
2023-04-12T17:03:28.845Z,99439.73
2023-04-12T17:06:09.878Z,99441.40
2023-04-12T17:08:47.591Z,99446.30
2023-04-12T17:11:23.745Z,99451.20
2023-04-12T17:14:00.822Z,99451.60
2023-04-12T17:16:36.540Z,99451.40
2023-04-12T17:19:11.743Z,99452.73
2023-04-12T17:21:48.601Z,99453.19
2023-04-12T17:24:26.175Z,99453.13
2023-04-12T17:27:03.331Z,99453.52
2023-04-12T17:29:39.062Z,99453.38
2023-04-12T17:32:17.861Z,99453.79
2023-04-12T17:34:58.047Z,99452.81
2023-04-12T17:37:39.539Z,99454.11
2023-04-12T17:40:16.733Z,99457.71
2023-04-12T17:42:56.514Z,99456.49
2023-04-12T17:45:34.680Z,99459.80
2023-04-12T17:48:16.851Z,99461.14
2023-04-12T17:50:50.936Z,99465.03
2023-04-12T17:53:27.030Z,99469.55
2023-04-12T17:56:02.386Z,99472.80
2023-04-12T17:58:38.984Z,99475.61
2023-04-12T18:01:15.612Z,99478.12
2023-04-12T18:03:50.788Z,99475.00
2023-04-12T18:06:30.515Z,99472.56
2023-04-12T18:09:06.675Z,99477.66
2023-04-12T18:11:44.067Z,99477.97
2023-04-12T18:14:21.287Z,99480.65
2023-04-12T18:16:58.271Z,99483.17
2023-04-12T18:19:33.020Z,99485.68
2023-04-12T18:22:13.081Z,99490.92
2023-04-12T18:24:53.713Z,99491.90
2023-04-12T18:27:29.905Z,99490.60
2023-04-12T18:30:05.910Z,99491.04
2023-04-12T18:32:41.713Z,99487.00
2023-04-12T18:35:17.625Z,99488.96
2023-04-12T18:37:52.246Z,99490.50
2023-04-12T18:40:32.247Z,99491.87
2023-04-12T18:43:12.634Z,99489.35
2023-04-12T18:45:50.569Z,99492.36
2023-04-12T18:48:29.345Z,99492.53
2023-04-12T18:51:06.219Z,99493.39
2023-04-12T18:53:44.468Z,99494.20
2023-04-12T18:56:24.668Z,99491.40
2023-04-12T18:59:04.916Z,99493.59
2023-04-12T19:01:45.268Z,99487.59
2023-04-12T19:04:21.497Z,99487.11
2023-04-12T19:06:57.358Z,99491.86
2023-04-12T19:09:34.135Z,99495.62
2023-04-12T19:15:05.950Z,99489.36
2023-04-12T19:17:47.939Z,99484.98
2023-04-12T19:20:25.096Z,99486.45
2023-04-12T19:23:00.429Z,99485.06
2023-04-12T19:25:37.558Z,99480.61
2023-04-12T19:28:13.912Z,99477.62
2023-04-12T19:30:50.829Z,99471.25
2023-04-12T19:33:29.706Z,99468.69
2023-04-12T19:36:08.666Z,99465.64
2023-04-12T19:38:48.830Z,99464.90
2023-04-12T19:41:24.311Z,99463.11
2023-04-12T19:44:01.130Z,99465.41
2023-04-12T19:46:47.240Z,99460.46
2023-04-12T19:49:23.032Z,99459.26
2023-04-12T19:51:59.698Z,99457.58
2023-04-12T19:54:38.584Z,99455.85
2023-04-12T19:57:15.186Z,99453.94
2023-04-12T19:59:51.922Z,99449.31
2023-04-12T20:02:29.787Z,99448.21
2023-04-12T20:05:07.474Z,99448.97
2023-04-12T20:07:43.725Z,99450.52
2023-04-12T20:10:22.456Z,99445.61
2023-04-12T20:12:56.829Z,99447.76
2023-04-12T20:15:32.060Z,99445.67
2023-04-12T20:18:08.691Z,99445.45
2023-04-12T20:20:45.545Z,99444.45
2023-04-12T20:23:21.034Z,99442.06
2023-04-12T20:26:06.391Z,99436.02
2023-04-12T20:28:43.254Z,99435.40
2023-04-12T20:31:20.511Z,99434.75
2023-04-12T20:33:57.566Z,99430.45
2023-04-12T20:36:34.965Z,99431.20
2023-04-12T20:39:09.833Z,99428.48
2023-04-12T20:41:51.746Z,99425.58
2023-04-12T20:44:27.830Z,99421.16
2023-04-12T20:47:03.066Z,99421.60
2023-04-12T20:49:38.350Z,99422.08
2023-04-12T20:52:12.674Z,99418.30
2023-04-12T20:54:50.919Z,99417.48
2023-04-12T20:57:26.473Z,99415.66
2023-04-12T21:00:02.074Z,99413.53
2023-04-12T21:02:36.516Z,99409.50
2023-04-12T21:05:11.527Z,99409.00
2023-04-12T21:07:47.201Z,99413.94
2023-04-12T21:10:22.673Z,99412.46
2023-04-12T21:12:57.373Z,99410.55
2023-04-12T21:15:32.140Z,99411.25
2023-04-12T21:18:05.592Z,99411.28
2023-04-12T21:20:39.811Z,99413.27
2023-04-12T21:23:14.013Z,99407.23
2023-04-12T21:25:50.067Z,99409.27
2023-04-12T21:28:23.680Z,99409.10
2023-04-12T21:30:58.623Z,99411.81
2023-04-12T21:33:32.535Z,99411.42
2023-04-12T21:36:06.908Z,99412.77
2023-04-12T21:38:40.666Z,99415.30
2023-04-12T21:41:15.267Z,99416.77
2023-04-12T21:43:49.907Z,99415.10
2023-04-12T21:46:27.820Z,99412.58
2023-04-12T21:49:01.459Z,99415.02
2023-04-12T21:51:35.194Z,99413.21
2023-04-12T21:54:08.442Z,99413.61
2023-04-12T21:56:42.411Z,99409.63
2023-04-12T21:59:16.868Z,99406.27
2023-04-12T22:01:50.241Z,99405.59
2023-04-12T22:04:23.937Z,99402.91
2023-04-12T22:06:58.471Z,99405.38
2023-04-12T22:09:32.904Z,99404.57
2023-04-12T22:12:07.138Z,99399.66
2023-04-12T22:14:47.483Z,99400.31
2023-04-12T22:17:22.778Z,99397.79
2023-04-12T22:19:57.026Z,99397.06
2023-04-12T22:22:32.248Z,99396.33
2023-04-12T22:25:07.902Z,99395.67
2023-04-12T22:27:41.486Z,99392.66
2023-04-12T22:30:16.106Z,99390.64
2023-04-12T22:32:49.422Z,99385.85
2023-04-12T22:35:25.412Z,99384.52
2023-04-12T22:37:58.716Z,99381.48
2023-04-12T22:40:32.282Z,99377.80
2023-04-12T22:43:06.061Z,99374.22
2023-04-12T22:45:41.089Z,99372.84
2023-04-12T22:48:15.202Z,99368.75
2023-04-12T22:50:49.365Z,99367.82
2023-04-12T22:53:23.062Z,99365.68
2023-04-12T22:55:58.507Z,99366.90
2023-04-12T22:58:32.736Z,99361.92
2023-04-12T23:01:06.944Z,99359.11
2023-04-12T23:03:41.898Z,99359.58
2023-04-12T23:06:15.387Z,99355.77
2023-04-12T23:08:50.041Z,99349.95
2023-04-12T23:11:23.795Z,99351.77
2023-04-12T23:13:58.353Z,99354.17
2023-04-12T23:16:34.103Z,99351.32
2023-04-12T23:19:07.870Z,99347.98
2023-04-12T23:21:41.424Z,99346.70
2023-04-12T23:24:16.023Z,99337.95
2023-04-12T23:26:50.085Z,99333.56
2023-04-12T23:29:26.036Z,99331.71
2023-04-12T23:31:59.788Z,99327.33
2023-04-12T23:34:35.081Z,99323.52
2023-04-12T23:37:09.008Z,99326.55
2023-04-12T23:39:43.439Z,99323.48
2023-04-12T23:42:17.461Z,99326.38
2023-04-12T23:44:51.835Z,99322.92
2023-04-12T23:47:25.793Z,99320.88
2023-04-12T23:49:59.739Z,99315.62
2023-04-12T23:52:33.705Z,99311.05
2023-04-12T23:55:08.857Z,99310.77
2023-04-12T23:57:42.586Z,99309.33
